createdAt,value
2018-01-06T00:01:00.029Z,97460.64
2018-01-06T00:03:31.572Z,97463.66
2018-01-06T00:06:05.673Z,97466.86
2018-01-06T00:08:35.440Z,97464.79
2018-01-06T00:11:22.579Z,97460.66
2018-01-06T00:14:21.547Z,97468.86
2018-01-06T00:16:59.385Z,97474.25
2018-01-06T00:19:29.287Z,97480.11
2018-01-06T00:22:19.646Z,97481.09
2018-01-06T00:24:55.480Z,97488.73
2018-01-06T00:27:29.066Z,97485.27
2018-01-06T00:30:00.683Z,97492.05
2018-01-06T00:32:32.074Z,97486.91
2018-01-06T00:35:14.701Z,97490.72
2018-01-06T00:38:57.781Z,97481.77
2018-01-06T00:41:28.071Z,97491.19
2018-01-06T00:43:58.736Z,97495.09
2018-01-06T00:46:28.956Z,97500.66
2018-01-06T00:48:58.667Z,97498.02
2018-01-06T00:51:28.538Z,97504.79
2018-01-06T00:53:58.567Z,97511.88
2018-01-06T00:59:20.592Z,97510.80
2018-01-06T01:01:53.211Z,97515.71
2018-01-06T01:04:22.910Z,97510.05
2018-01-06T01:06:53.123Z,97512.72
2018-01-06T01:09:22.805Z,97518.19
2018-01-06T01:11:52.743Z,97527.61
2018-01-06T01:14:22.740Z,97535.05
2018-01-06T01:16:52.868Z,97529.59
2018-01-06T01:19:24.162Z,97531.31
2018-01-06T01:21:53.947Z,97535.06
2018-01-06T01:24:24.393Z,97534.83
2018-01-06T01:26:55.929Z,97538.84
2018-01-06T01:29:27.775Z,97544.52
2018-01-06T01:32:21.790Z,97540.53
2018-01-06T01:34:51.983Z,97542.41
2018-01-06T01:37:21.743Z,97549.60
2018-01-06T01:39:53.225Z,97554.50
2018-01-06T01:42:31.854Z,97558.23
2018-01-06T01:45:19.889Z,97561.36
2018-01-06T01:47:49.660Z,97557.40
2018-01-06T01:50:19.636Z,97561.20
2018-01-06T01:52:49.707Z,97561.16
2018-01-06T01:55:19.341Z,97557.16
2018-01-06T01:57:49.033Z,97558.25
2018-01-06T02:07:48.064Z,97562.41
2018-01-06T02:10:17.900Z,97569.06
2018-01-06T02:12:48.965Z,97568.72
2018-01-06T02:15:18.621Z,97578.72
2018-01-06T02:17:49.204Z,97570.42
2018-01-06T02:20:19.571Z,97564.69
2018-01-06T02:22:49.462Z,97563.42
2018-01-06T02:25:19.602Z,97564.51
2018-01-06T02:27:49.464Z,97564.10
2018-01-06T02:30:19.394Z,97574.17
2018-01-06T02:32:48.802Z,97566.56
2018-01-06T02:35:18.794Z,97572.87
2018-01-06T02:37:48.722Z,97578.08
2018-01-06T02:40:19.104Z,97574.51
2018-01-06T02:42:48.670Z,97583.38
2018-01-06T02:45:18.338Z,97581.98
2018-01-06T02:47:50.127Z,97589.77
2018-01-06T02:50:20.357Z,97590.33
2018-01-06T02:52:49.856Z,97584.47
2018-01-06T02:55:20.329Z,97584.20
2018-01-06T02:57:51.627Z,97590.17
2018-01-06T03:00:23.641Z,97589.52
2018-01-06T03:02:55.062Z,97592.98
2018-01-06T03:05:25.177Z,97594.19
2018-01-06T03:11:16.686Z,97597.39
2018-01-06T03:13:46.792Z,97594.33
2018-01-06T03:16:20.268Z,97589.58
2018-01-06T03:18:50.484Z,97592.06
2018-01-06T03:21:21.124Z,97590.05
2018-01-06T03:23:59.751Z,97592.06
2018-01-06T03:26:29.514Z,97592.77
2018-01-06T03:29:01.924Z,97603.15
2018-01-06T03:31:31.604Z,97589.66
2018-01-06T03:34:01.962Z,97588.00
2018-01-06T03:36:31.605Z,97598.69
2018-01-06T03:39:01.629Z,97596.16
2018-01-06T03:41:31.382Z,97601.69
2018-01-06T03:44:02.644Z,97600.97
2018-01-06T03:46:32.404Z,97600.36
2018-01-06T03:49:02.365Z,97590.80
2018-01-06T03:51:32.360Z,97592.25
2018-01-06T03:54:02.931Z,97599.92
2018-01-06T03:56:34.521Z,97598.61
2018-01-06T03:59:04.187Z,97605.43
2018-01-06T04:01:38.701Z,97604.16
2018-01-06T04:04:08.306Z,97610.66
2018-01-06T04:06:38.548Z,97607.11
2018-01-06T04:09:08.737Z,97614.21
2018-01-06T04:11:40.766Z,97617.50
2018-01-06T04:14:10.523Z,97617.09
2018-01-06T04:16:43.039Z,97616.66
2018-01-06T04:19:12.699Z,97618.11
2018-01-06T04:21:42.505Z,97620.75
2018-01-06T04:24:13.693Z,97614.93
2018-01-06T04:26:44.297Z,97620.67
2018-01-06T04:29:16.398Z,97622.56
2018-01-06T04:31:48.129Z,97625.88
2018-01-06T04:34:17.661Z,97632.62
2018-01-06T04:36:47.337Z,97635.45
2018-01-06T04:39:17.456Z,97633.52
2018-01-06T04:41:50.466Z,97637.20
2018-01-06T04:44:23.641Z,97647.81
2018-01-06T04:46:54.210Z,97645.40
2018-01-06T04:49:24.418Z,97643.47
2018-01-06T04:51:58.736Z,97649.96
2018-01-06T04:54:28.569Z,97646.12
2018-01-06T04:57:00.276Z,97654.66
2018-01-06T04:59:30.159Z,97656.62
2018-01-06T05:02:02.277Z,97658.02
2018-01-06T05:04:32.549Z,97664.68
2018-01-06T05:07:02.927Z,97666.25
2018-01-06T05:09:32.516Z,97664.37
2018-01-06T05:12:02.078Z,97659.14
2018-01-06T05:14:34.386Z,97659.72
2018-01-06T05:17:04.698Z,97658.11
2018-01-06T05:19:37.048Z,97661.87
2018-01-06T05:22:08.739Z,97666.81
2018-01-06T05:24:38.811Z,97667.67
2018-01-06T05:27:09.116Z,97668.78
2018-01-06T05:29:41.617Z,97674.33
2018-01-06T05:32:11.112Z,97677.38
2018-01-06T05:34:43.439Z,97679.34
2018-01-06T05:37:14.082Z,97683.89
2018-01-06T05:39:43.597Z,97677.41
2018-01-06T05:42:13.112Z,97678.11
2018-01-06T05:44:44.649Z,97681.84
2018-01-06T05:47:17.619Z,97683.98
2018-01-06T05:49:47.350Z,97678.80
2018-01-06T05:52:17.451Z,97674.94
2018-01-06T05:54:56.852Z,97676.84
2018-01-06T05:57:26.499Z,97685.33
2018-01-06T05:59:59.682Z,97684.10
2018-01-06T06:02:29.462Z,97680.55
2018-01-06T06:05:00.187Z,97681.88
2018-01-06T06:07:31.434Z,97684.63
2018-01-06T06:10:05.483Z,97689.86
2018-01-06T06:12:37.608Z,97684.70
2018-01-06T06:15:09.833Z,97695.59
2018-01-06T06:17:44.217Z,97701.14
2018-01-06T06:20:21.417Z,97700.17
2018-01-06T06:22:56.939Z,97691.39
2018-01-06T06:25:31.757Z,97691.47
2018-01-06T06:28:06.241Z,97696.27
2018-01-06T06:30:42.771Z,97695.50
2018-01-06T06:33:13.462Z,97697.20
2018-01-06T06:35:45.999Z,97713.16
2018-01-06T06:38:20.183Z,97721.24
2018-01-06T06:40:52.351Z,97721.66
2018-01-06T06:43:26.491Z,97728.23
2018-01-06T06:45:56.315Z,97729.48
2018-01-06T06:48:26.960Z,97735.95
2018-01-06T06:50:57.192Z,97740.55
2018-01-06T06:53:28.866Z,97741.69
2018-01-06T06:55:59.264Z,97748.12
2018-01-06T06:58:30.838Z,97750.80
2018-01-06T07:01:07.351Z,97768.79
2018-01-06T07:03:39.737Z,97766.36
2018-01-06T07:06:11.106Z,97771.73
2018-01-06T07:08:48.618Z,97770.91
2018-01-06T07:11:18.381Z,97769.80
2018-01-06T07:13:49.661Z,97764.87
2018-01-06T07:16:23.864Z,97775.46
2018-01-06T07:18:57.731Z,97784.19
2018-01-06T07:21:36.054Z,97788.40
2018-01-06T07:24:25.388Z,97785.91
2018-01-06T07:26:59.606Z,97782.97
2018-01-06T07:29:29.964Z,97786.32
2018-01-06T07:32:02.626Z,97784.48
2018-01-06T07:34:32.756Z,97790.22
2018-01-06T07:37:02.591Z,97798.67
2018-01-06T07:39:34.748Z,97801.80
2018-01-06T07:42:04.997Z,97804.20
2018-01-06T07:44:36.356Z,97808.96
2018-01-06T07:47:07.892Z,97806.32
2018-01-06T07:49:47.303Z,97808.23
2018-01-06T07:52:17.944Z,97812.16
2018-01-06T07:54:53.433Z,97817.41
2018-01-06T07:57:23.208Z,97811.80
2018-01-06T07:59:58.558Z,97817.48
2018-01-06T08:02:36.393Z,97819.88
2018-01-06T08:05:07.243Z,97823.55
2018-01-06T08:07:42.312Z,97826.01
2018-01-06T08:10:15.586Z,97821.50
2018-01-06T08:12:52.019Z,97829.82
2018-01-06T08:15:25.419Z,97836.20
2018-01-06T08:17:55.728Z,97843.12
2018-01-06T08:20:26.842Z,97852.63
2018-01-06T08:22:58.531Z,97847.84
2018-01-06T08:25:32.474Z,97848.66
2018-01-06T08:28:04.652Z,97845.17
2018-01-06T08:30:37.005Z,97850.84
2018-01-06T08:33:11.964Z,97849.57
2018-01-06T08:35:43.781Z,97856.03
2018-01-06T08:38:17.760Z,97860.56
2018-01-06T08:40:51.446Z,97865.92
2018-01-06T08:43:22.282Z,97862.88
2018-01-06T08:45:53.697Z,97859.89
2018-01-06T08:48:25.233Z,97864.00
2018-01-06T08:50:58.798Z,97863.91
2018-01-06T08:53:34.599Z,97863.72
2018-01-06T08:56:08.018Z,97859.34
2018-01-06T08:58:41.533Z,97850.20
2018-01-06T09:01:14.113Z,97867.93
2018-01-06T09:03:47.147Z,97877.86
2018-01-06T09:06:19.632Z,97887.58
2018-01-06T09:08:52.611Z,97888.41
2018-01-06T09:11:22.749Z,97898.28
2018-01-06T09:13:52.575Z,97900.23
2018-01-06T09:16:23.025Z,97906.57
2018-01-06T09:18:53.584Z,97910.61
2018-01-06T09:21:24.883Z,97927.08
2018-01-06T09:23:56.536Z,97925.06
2018-01-06T09:26:28.208Z,97934.38
2018-01-06T09:28:58.597Z,97928.37
2018-01-06T09:36:28.783Z,97934.52
2018-01-06T09:39:10.342Z,97933.65
2018-01-06T09:41:50.380Z,97940.01
2018-01-06T09:44:36.374Z,97936.15
2018-01-06T09:47:27.575Z,97940.59
2018-01-06T09:49:58.689Z,97941.31
2018-01-06T09:52:36.564Z,97950.72
2018-01-06T09:55:18.432Z,97945.21
2018-01-06T09:57:49.945Z,97943.47
2018-01-06T10:00:32.593Z,97947.59
2018-01-06T10:03:17.063Z,97942.38
2018-01-06T10:05:47.389Z,97948.22
2018-01-06T10:08:17.230Z,97941.39
2018-01-06T10:10:47.904Z,97952.41
2018-01-06T10:13:18.687Z,97946.73
2018-01-06T10:15:48.242Z,97951.98
2018-01-06T10:18:19.883Z,97950.15
2018-01-06T10:20:50.145Z,97953.95
2018-01-06T10:23:20.071Z,97955.07
2018-01-06T10:25:51.807Z,97955.39
2018-01-06T10:28:21.614Z,97951.88
2018-01-06T10:30:51.193Z,97954.05
2018-01-06T10:33:21.215Z,97946.57
2018-01-06T10:35:55.386Z,97959.48
2018-01-06T10:38:25.864Z,97949.64
2018-01-06T10:40:56.075Z,97954.72
2018-01-06T10:43:25.874Z,97955.96
2018-01-06T10:45:56.749Z,97956.63
2018-01-06T10:48:27.754Z,97954.64
2018-01-06T10:50:57.668Z,97961.91
2018-01-06T10:53:28.352Z,97960.47
2018-01-06T10:55:58.110Z,97954.72
2018-01-06T10:58:27.913Z,97956.90
2018-01-06T11:01:23.770Z,97963.84
2018-01-06T11:04:06.796Z,97951.56
2018-01-06T11:06:50.816Z,97962.69
2018-01-06T11:09:41.174Z,97952.77
2018-01-06T11:12:17.099Z,97954.97
2018-01-06T11:14:52.666Z,97957.02
2018-01-06T11:20:46.579Z,97966.41
2018-01-06T11:23:25.674Z,97963.64
2018-01-06T11:26:01.368Z,97967.77
2018-01-06T11:28:31.409Z,97970.70
2018-01-06T11:31:11.360Z,97970.08
2018-01-06T11:33:43.014Z,97969.80
2018-01-06T11:36:17.562Z,97962.82
2018-01-06T11:38:49.882Z,97966.81
2018-01-06T11:41:30.317Z,97973.04
2018-01-06T11:44:02.707Z,97969.75
2018-01-06T11:46:33.093Z,97967.14
2018-01-06T11:49:03.029Z,97965.41
2018-01-06T11:51:33.461Z,97963.66
2018-01-06T11:54:05.303Z,97963.16
2018-01-06T11:56:35.228Z,97964.95
2018-01-06T11:59:05.099Z,97963.84
2018-01-06T12:01:36.056Z,97969.45
2018-01-06T12:04:06.203Z,97972.16
2018-01-06T12:06:36.181Z,97967.95
2018-01-06T12:09:06.590Z,97959.67
2018-01-06T12:11:39.124Z,97961.31
2018-01-06T12:14:11.158Z,97962.56
2018-01-06T12:16:41.133Z,97961.39
2018-01-06T12:19:11.134Z,97962.31
2018-01-06T12:22:25.278Z,97964.04
2018-01-06T12:24:57.800Z,97962.37
2018-01-06T12:27:30.232Z,97958.62
2018-01-06T12:30:02.849Z,97967.33
2018-01-06T12:32:37.175Z,97959.72
2018-01-06T12:35:09.457Z,97959.09
2018-01-06T12:37:43.223Z,97958.52
2018-01-06T12:40:13.699Z,97966.49
2018-01-06T12:42:43.531Z,97964.13
2018-01-06T12:45:18.922Z,97963.78
2018-01-06T12:47:49.967Z,97968.17
2018-01-06T12:50:21.685Z,97966.35
2018-01-06T12:52:54.405Z,97970.62
2018-01-06T12:55:26.164Z,97970.91
2018-01-06T12:57:58.409Z,97974.92
2018-01-06T13:00:29.683Z,97973.91
2018-01-06T13:03:01.120Z,97974.30
2018-01-06T13:05:32.589Z,97977.83
2018-01-06T13:08:06.534Z,97979.80
2018-01-06T13:10:40.550Z,97977.07
2018-01-06T13:13:12.265Z,97984.64
2018-01-06T13:15:43.466Z,97985.50
2018-01-06T13:18:14.568Z,97985.73
2018-01-06T13:20:44.759Z,97987.55
2018-01-06T13:23:15.924Z,97986.92
2018-01-06T13:25:47.129Z,97992.16
2018-01-06T13:28:17.988Z,97994.65
2018-01-06T13:30:48.380Z,97996.58
2018-01-06T13:33:21.667Z,98000.42
2018-01-06T13:35:52.831Z,97998.86
2018-01-06T13:38:22.656Z,98011.44
2018-01-06T13:40:52.223Z,98015.43
2018-01-06T13:43:22.986Z,98012.81
2018-01-06T13:45:55.364Z,98016.12
2018-01-06T13:48:26.241Z,98011.97
2018-01-06T13:50:57.458Z,98018.06
2018-01-06T13:53:27.138Z,98023.99
2018-01-06T13:55:57.315Z,98028.06
2018-01-06T13:58:27.176Z,98032.33
2018-01-06T14:00:58.520Z,98027.86
2018-01-06T14:03:31.006Z,98033.17
2018-01-06T14:06:02.068Z,98041.00
2018-01-06T14:08:32.632Z,98038.08
2018-01-06T14:11:03.040Z,98047.95
2018-01-06T14:13:33.903Z,98045.53
2018-01-06T14:16:03.993Z,98054.28
2018-01-06T14:18:34.342Z,98052.77
2018-01-06T14:21:04.702Z,98054.30
2018-01-06T14:23:37.022Z,98057.25
2018-01-06T14:26:06.702Z,98065.03
2018-01-06T14:28:36.628Z,98067.53
2018-01-06T14:31:08.193Z,98079.20
2018-01-06T14:33:40.090Z,98080.59
2018-01-06T14:36:11.248Z,98084.78
2018-01-06T14:38:42.207Z,98086.47
2018-01-06T14:41:18.408Z,98087.49
2018-01-06T14:43:51.398Z,98089.52
2018-01-06T14:46:21.559Z,98094.28
2018-01-06T14:48:52.361Z,98098.20
2018-01-06T14:51:23.813Z,98102.23
2018-01-06T14:53:54.010Z,98104.39
2018-01-06T14:56:26.285Z,98107.20
2018-01-06T14:58:55.934Z,98107.83
2018-01-06T15:01:26.352Z,98111.98
2018-01-06T15:03:56.846Z,98113.30
2018-01-06T15:06:27.552Z,98111.77
2018-01-06T15:08:59.602Z,98110.56
2018-01-06T15:11:29.967Z,98113.25
2018-01-06T15:14:00.439Z,98122.52
2018-01-06T15:16:31.223Z,98125.58
2018-01-06T15:19:04.251Z,98124.61
2018-01-06T15:21:35.062Z,98118.89
2018-01-06T15:24:05.950Z,98122.30
2018-01-06T15:26:37.918Z,98118.02
2018-01-06T15:29:08.228Z,98127.39
2018-01-06T15:31:39.294Z,98126.92
2018-01-06T15:34:10.006Z,98137.71
2018-01-06T15:36:41.790Z,98137.64
2018-01-06T15:39:13.341Z,98131.17
2018-01-06T15:41:44.179Z,98136.11
2018-01-06T15:44:16.108Z,98143.24
2018-01-06T15:46:47.167Z,98148.81
2018-01-06T15:49:18.109Z,98149.67
2018-01-06T15:51:48.967Z,98149.39
2018-01-06T15:54:18.588Z,98144.74
2018-01-06T15:56:49.011Z,98149.20
2018-01-06T15:59:19.172Z,98154.41
2018-01-06T16:01:49.436Z,98160.02
2018-01-06T16:04:19.692Z,98161.81
2018-01-06T16:06:49.210Z,98172.66
2018-01-06T16:09:20.930Z,98164.58
2018-01-06T16:11:51.152Z,98169.73
2018-01-06T16:14:21.035Z,98174.80
2018-01-06T16:16:51.177Z,98172.33
2018-01-06T16:19:22.899Z,98178.23
2018-01-06T16:21:56.523Z,98175.62
2018-01-06T16:24:26.908Z,98176.84
2018-01-06T16:26:56.708Z,98180.33
2018-01-06T16:29:26.691Z,98184.30
2018-01-06T16:31:56.456Z,98185.77
2018-01-06T16:34:26.105Z,98185.84
2018-01-06T16:36:56.496Z,98193.09
2018-01-06T16:39:26.712Z,98194.81
2018-01-06T16:44:18.246Z,98202.31
2018-01-06T16:46:49.897Z,98206.58
2018-01-06T16:49:22.080Z,98214.84
2018-01-06T16:51:51.741Z,98219.14
2018-01-06T16:54:22.604Z,98220.69
2018-01-06T16:56:53.650Z,98218.89
2018-01-06T16:59:23.787Z,98216.02
2018-01-06T17:01:53.861Z,98223.53
2018-01-06T17:04:25.174Z,98216.73
2018-01-06T17:06:55.398Z,98215.73
2018-01-06T17:09:25.442Z,98226.38
2018-01-06T17:11:55.304Z,98224.28
2018-01-06T17:14:25.157Z,98231.02
2018-01-06T17:16:54.920Z,98227.66
2018-01-06T17:19:26.951Z,98233.43
2018-01-06T17:21:59.651Z,98237.62
2018-01-06T17:24:31.084Z,98242.91
2018-01-06T17:27:02.518Z,98245.41
2018-01-06T17:29:32.568Z,98248.87
2018-01-06T17:32:04.790Z,98255.22
2018-01-06T17:34:34.526Z,98252.62
2018-01-06T17:37:05.334Z,98263.09
2018-01-06T17:39:37.525Z,98266.28
2018-01-06T17:42:09.796Z,98267.16
2018-01-06T17:44:40.289Z,98273.34
2018-01-06T17:47:11.133Z,98278.63
2018-01-06T17:49:43.170Z,98280.90
2018-01-06T17:52:16.378Z,98287.44
2018-01-06T17:54:47.340Z,98283.87
2018-01-06T17:57:17.529Z,98293.83
2018-01-06T17:59:49.412Z,98293.34
2018-01-06T18:02:20.070Z,98299.48
2018-01-06T18:04:49.973Z,98302.77
2018-01-06T18:07:22.372Z,98309.80
2018-01-06T18:09:52.805Z,98312.89
2018-01-06T18:12:23.030Z,98320.84
2018-01-06T18:14:52.768Z,98322.98
2018-01-06T18:17:24.458Z,98321.59
2018-01-06T18:19:55.256Z,98327.73
2018-01-06T18:22:28.323Z,98325.20
2018-01-06T18:24:58.783Z,98329.49
2018-01-06T18:27:30.893Z,98324.18
2018-01-06T18:30:01.789Z,98332.49
2018-01-06T18:32:33.223Z,98327.17
2018-01-06T18:35:12.220Z,98321.18
2018-01-06T18:37:45.462Z,98325.52
2018-01-06T18:40:17.700Z,98329.80
2018-01-06T18:42:48.048Z,98328.16
2018-01-06T18:45:22.527Z,98339.43
2018-01-06T18:47:55.837Z,98337.84
2018-01-06T18:50:31.581Z,98343.12
2018-01-06T18:53:06.151Z,98350.03
2018-01-06T18:55:38.530Z,98347.30
2018-01-06T18:58:12.273Z,98353.03
2018-01-06T19:00:44.742Z,98356.01
2018-01-06T19:03:15.676Z,98367.32
2018-01-06T19:05:46.858Z,98367.88
2018-01-06T19:08:17.221Z,98383.98
2018-01-06T19:10:49.543Z,98384.32
2018-01-06T19:13:19.690Z,98384.35
2018-01-06T19:15:50.692Z,98385.61
2018-01-06T19:18:21.573Z,98388.91
2018-01-06T19:20:51.316Z,98398.88
2018-01-06T19:23:21.275Z,98403.17
2018-01-06T19:25:51.324Z,98399.03
2018-01-06T19:28:21.261Z,98405.00
2018-01-06T19:30:53.484Z,98404.67
2018-01-06T19:33:24.748Z,98413.38
2018-01-06T19:35:59.088Z,98405.78
2018-01-06T19:38:29.533Z,98407.17
2018-01-06T19:41:00.087Z,98415.58
2018-01-06T19:43:31.051Z,98420.70
2018-01-06T19:46:04.644Z,98431.44
2018-01-06T19:48:37.413Z,98441.69
2018-01-06T19:51:09.376Z,98445.15
2018-01-06T19:53:40.367Z,98452.05
2018-01-06T19:56:11.474Z,98455.14
2018-01-06T19:58:41.819Z,98459.22
2018-01-06T20:01:14.684Z,98460.02
2018-01-06T20:03:45.270Z,98464.66
2018-01-06T20:06:16.074Z,98474.52
2018-01-06T20:08:46.513Z,98478.38
2018-01-06T20:11:16.918Z,98478.92
2018-01-06T20:13:49.511Z,98484.48
2018-01-06T20:16:20.500Z,98488.16
2018-01-06T20:18:51.672Z,98495.88
2018-01-06T20:21:21.581Z,98496.55
2018-01-06T20:23:55.198Z,98499.33
2018-01-06T20:26:26.862Z,98498.77
2018-01-06T20:28:58.503Z,98494.69
2018-01-06T20:31:28.573Z,98507.60
2018-01-06T20:33:59.436Z,98511.25
2018-01-06T20:36:31.414Z,98510.38
2018-01-06T20:41:58.238Z,98515.34
2018-01-06T20:44:31.847Z,98519.02
2018-01-06T20:47:04.645Z,98523.59
2018-01-06T20:49:38.272Z,98519.16
2018-01-06T20:52:08.953Z,98518.66
2018-01-06T20:54:41.081Z,98519.19
2018-01-06T20:57:13.073Z,98521.69
2018-01-06T20:59:44.115Z,98528.10
2018-01-06T21:02:16.433Z,98532.33
2018-01-06T21:04:49.043Z,98530.59
2018-01-06T21:07:20.325Z,98538.50
2018-01-06T21:09:53.862Z,98544.73
2018-01-06T21:12:25.792Z,98541.25
2018-01-06T21:15:00.409Z,98543.66
2018-01-06T21:17:33.480Z,98547.63
2018-01-06T21:20:07.495Z,98546.06
2018-01-06T21:22:40.743Z,98549.35
2018-01-06T21:25:14.173Z,98555.13
2018-01-06T21:27:45.168Z,98553.37
2018-01-06T21:30:17.652Z,98559.25
2018-01-06T21:32:50.576Z,98555.70
2018-01-06T21:35:26.803Z,98563.16
2018-01-06T21:38:03.159Z,98562.71
2018-01-06T21:40:42.191Z,98571.48
2018-01-06T21:45:56.700Z,98571.73
2018-01-06T21:48:31.278Z,98576.55
2018-01-06T21:51:01.286Z,98582.87
2018-01-06T21:53:34.273Z,98581.13
2018-01-06T21:56:07.878Z,98589.11
2018-01-06T21:58:39.183Z,98594.14
2018-01-06T22:01:09.961Z,98595.23
2018-01-06T22:03:40.618Z,98598.07
2018-01-06T22:06:10.976Z,98601.56
2018-01-06T22:08:40.645Z,98609.20
2018-01-06T22:11:12.701Z,98618.88
2018-01-06T22:13:48.491Z,98621.47
2018-01-06T22:16:18.624Z,98629.56
2018-01-06T22:18:49.925Z,98637.17
2018-01-06T22:21:21.361Z,98634.67
2018-01-06T22:23:51.342Z,98631.88
2018-01-06T22:26:21.896Z,98633.16
2018-01-06T22:28:52.227Z,98639.38
2018-01-06T22:31:22.076Z,98646.19
2018-01-06T22:33:51.778Z,98647.17
2018-01-06T22:36:22.911Z,98644.16
2018-01-06T22:38:52.713Z,98649.42
2018-01-06T22:41:26.021Z,98645.00
2018-01-06T22:43:57.866Z,98654.17
2018-01-06T22:46:29.256Z,98654.91
2018-01-06T22:49:00.120Z,98656.98
2018-01-06T22:51:43.423Z,98666.91
2018-01-06T22:54:24.384Z,98669.30
2018-01-06T22:56:56.025Z,98676.53
2018-01-06T22:59:27.180Z,98678.32
2018-01-06T23:02:01.529Z,98685.25
2018-01-06T23:04:32.139Z,98692.88
2018-01-06T23:07:02.565Z,98694.69
2018-01-06T23:09:36.575Z,98698.09
2018-01-06T23:12:08.569Z,98708.58
2018-01-06T23:14:42.029Z,98710.12
2018-01-06T23:17:14.293Z,98711.35
2018-01-06T23:19:47.485Z,98716.77
2018-01-06T23:22:20.548Z,98716.27
2018-01-06T23:24:54.152Z,98722.41
2018-01-06T23:27:24.166Z,98718.05
2018-01-06T23:29:57.835Z,98714.56
2018-01-06T23:32:29.112Z,98724.17
2018-01-06T23:34:59.014Z,98723.38
2018-01-06T23:37:29.771Z,98727.16
2018-01-06T23:40:00.459Z,98729.09
2018-01-06T23:42:30.088Z,98732.59
2018-01-06T23:44:59.697Z,98730.09
2018-01-06T23:47:29.885Z,98726.11
2018-01-06T23:50:00.898Z,98729.80
2018-01-06T23:52:31.147Z,98726.53
2018-01-06T23:55:04.335Z,98732.17
2018-01-06T23:57:34.266Z,98742.02
